createdAt,value
2023-02-03T06:05:33.314Z,3.80
2023-02-03T06:06:34.013Z,3.80
2023-02-03T06:07:35.511Z,3.84
2023-02-03T06:08:33.759Z,3.95
2023-02-03T06:09:34.533Z,3.91
2023-02-03T06:10:34.171Z,3.82
2023-02-03T06:11:34.243Z,3.77
2023-02-03T06:12:33.839Z,3.79
2023-02-03T06:13:34.769Z,3.86
2023-02-03T06:14:33.547Z,3.92
2023-02-03T06:15:33.698Z,3.95
2023-02-03T06:16:33.618Z,3.91
2023-02-03T06:23:28.920Z,4.22
2023-02-03T06:24:29.338Z,4.12
2023-02-03T06:25:29.200Z,4.18
2023-02-03T06:26:30.378Z,4.19
2023-02-03T06:27:29.513Z,4.20
2023-02-03T06:28:29.418Z,4.19
2023-02-03T06:29:29.187Z,4.10
2023-02-03T06:30:29.716Z,4.10
2023-02-03T06:31:29.315Z,4.18
2023-02-03T06:32:29.099Z,4.16
2023-02-03T06:33:29.246Z,4.19
2023-02-03T06:34:29.759Z,4.08
2023-02-03T06:35:29.227Z,4.00
2023-02-03T06:36:28.998Z,3.98
2023-02-03T06:37:29.331Z,4.09
2023-02-03T06:38:29.047Z,4.09
2023-02-03T06:39:29.816Z,4.05
2023-02-03T06:40:29.699Z,4.16
2023-02-03T06:41:29.692Z,4.13
2023-02-03T06:42:29.126Z,4.18
2023-02-03T06:43:29.713Z,4.18
2023-02-03T06:44:29.737Z,4.20
2023-02-03T06:45:28.897Z,4.13
2023-02-03T06:46:29.154Z,4.16
2023-02-03T06:47:28.868Z,4.20
2023-02-03T06:48:29.066Z,4.13
2023-02-03T06:49:28.957Z,4.19
2023-02-03T06:50:29.854Z,4.16
2023-02-03T06:51:28.357Z,4.04
2023-02-03T06:52:29.029Z,4.02
2023-02-03T06:53:29.622Z,4.01
2023-02-03T06:54:29.737Z,4.05
2023-02-03T06:55:29.245Z,4.00
2023-02-03T06:56:28.997Z,4.09
2023-02-03T06:57:29.652Z,4.10
2023-02-03T06:58:29.099Z,4.15
2023-02-03T06:59:28.859Z,4.08
2023-02-03T07:00:29.362Z,4.10
2023-02-03T07:01:29.538Z,4.18
2023-02-03T07:02:28.856Z,4.15
2023-02-03T07:03:29.229Z,4.18
2023-02-03T07:04:29.396Z,4.15
2023-02-03T07:05:29.477Z,4.23
2023-02-03T07:06:28.747Z,4.28
2023-02-03T07:07:29.245Z,4.31
2023-02-03T07:08:28.906Z,4.26
2023-02-03T07:09:29.065Z,4.22
2023-02-03T07:10:29.208Z,4.30
2023-02-03T07:11:28.898Z,4.38
2023-02-03T07:12:28.888Z,4.41
2023-02-03T07:13:29.629Z,4.31
2023-02-03T07:14:28.765Z,4.33
2023-02-03T07:15:28.818Z,4.31
2023-02-03T07:16:28.836Z,4.38
2023-02-03T07:17:28.871Z,4.34
2023-02-03T07:18:46.288Z,4.35
2023-02-03T07:19:28.607Z,4.33
2023-02-03T07:20:29.168Z,4.37
2023-02-03T07:21:28.658Z,4.37
2023-02-03T07:22:28.739Z,4.41
2023-02-03T07:23:28.707Z,4.46
2023-02-03T07:24:28.833Z,4.48
2023-02-03T07:25:28.612Z,4.56
2023-02-03T07:26:28.707Z,4.48
2023-02-03T07:27:28.857Z,4.45
2023-02-03T07:28:28.856Z,4.40
2023-02-03T07:29:28.666Z,4.43
2023-02-03T07:30:29.099Z,4.38
2023-02-03T07:31:28.699Z,4.38
2023-02-03T07:32:28.607Z,4.41
2023-02-03T07:33:28.706Z,4.49
2023-02-03T07:34:28.394Z,4.49
2023-02-03T07:35:28.581Z,4.53
2023-02-03T07:36:28.356Z,4.53
2023-02-03T07:37:29.474Z,4.49
2023-02-03T07:38:28.442Z,4.51
2023-02-03T07:39:28.567Z,4.55
2023-02-03T07:40:28.811Z,4.61
2023-02-03T07:41:28.547Z,4.59
2023-02-03T07:42:29.544Z,4.64
2023-02-03T07:43:28.575Z,4.61
2023-02-03T07:44:28.472Z,4.74
2023-02-03T07:45:28.528Z,4.73
2023-02-03T07:46:50.403Z,4.79
2023-02-03T07:47:28.506Z,4.88
2023-02-03T07:48:28.416Z,4.86
2023-02-03T07:49:28.266Z,4.88
2023-02-03T07:50:29.899Z,4.89
2023-02-03T07:51:28.323Z,4.92
2023-02-03T07:52:49.967Z,4.89
2023-02-03T07:53:28.325Z,4.93
2023-02-03T07:54:28.546Z,4.96
2023-02-03T07:55:28.247Z,5.01
2023-02-03T07:56:28.617Z,5.10
2023-02-03T07:57:28.276Z,5.11
2023-02-03T07:58:28.939Z,5.13
2023-02-03T07:59:28.262Z,5.06
2023-02-03T08:00:28.756Z,5.07
2023-02-03T08:01:28.304Z,5.10
2023-02-03T08:02:27.934Z,5.08
2023-02-03T08:03:27.536Z,5.08
2023-02-03T08:04:28.160Z,5.01
2023-02-03T08:05:28.367Z,5.16
2023-02-03T08:06:28.185Z,5.22
2023-02-03T08:07:27.677Z,5.24
2023-02-03T08:08:28.103Z,5.28
2023-02-03T08:09:29.029Z,5.26
2023-02-03T08:10:28.455Z,5.32
2023-02-03T08:11:28.756Z,5.29
2023-02-03T08:12:28.266Z,5.31
2023-02-03T08:13:28.195Z,5.26
2023-02-03T08:14:28.094Z,5.25
2023-02-03T08:15:28.185Z,5.25
2023-02-03T08:16:29.296Z,5.33
2023-02-03T08:17:27.466Z,5.33
2023-02-03T08:18:28.557Z,5.32
2023-02-03T08:19:28.257Z,5.39
2023-02-03T08:20:28.390Z,5.40
2023-02-03T08:21:28.056Z,5.40
2023-02-03T08:22:28.125Z,5.39
2023-02-03T08:23:28.108Z,5.46
2023-02-03T08:24:28.737Z,5.40
2023-02-03T08:25:27.924Z,5.40
2023-02-03T08:26:28.107Z,5.46
2023-02-03T08:27:27.267Z,5.42
2023-02-03T08:28:28.379Z,5.43
2023-02-03T08:29:27.900Z,5.35
2023-02-03T08:30:31.167Z,5.31
2023-02-03T08:31:29.551Z,5.46
2023-02-03T08:32:28.375Z,5.42
2023-02-03T08:33:28.058Z,5.42
2023-02-03T08:34:28.306Z,5.35
2023-02-03T08:35:28.016Z,5.31
2023-02-03T08:36:27.229Z,5.40
2023-02-03T08:37:27.884Z,5.44
2023-02-03T08:38:28.429Z,5.43
2023-02-03T08:39:27.896Z,5.35
2023-02-03T08:40:28.053Z,5.36
2023-02-03T08:41:28.074Z,5.35
2023-02-03T08:42:27.746Z,5.32
2023-02-03T08:43:29.776Z,5.28
2023-02-03T08:44:27.895Z,5.17
2023-02-03T08:45:28.419Z,5.24
2023-02-03T08:46:27.755Z,5.17
2023-02-03T08:47:27.895Z,5.22
2023-02-03T08:48:27.756Z,5.22
2023-02-03T08:49:28.117Z,5.24
2023-02-03T08:50:28.660Z,5.22
2023-02-03T08:51:28.456Z,5.29
2023-02-03T08:52:27.807Z,5.32
2023-02-03T08:53:27.652Z,5.32
2023-02-03T08:54:27.851Z,5.26
2023-02-03T08:55:27.800Z,5.35
2023-02-03T08:56:27.777Z,5.32
2023-02-03T08:57:27.631Z,5.32
2023-02-03T08:58:27.767Z,5.42
2023-02-03T08:59:28.861Z,5.51
2023-02-03T09:00:28.272Z,5.57
2023-02-03T09:01:27.664Z,5.51
2023-02-03T09:02:27.764Z,5.58
2023-02-03T09:03:28.325Z,5.67
2023-02-03T09:04:27.012Z,5.74
2023-02-03T09:05:27.661Z,5.69
2023-02-03T09:06:27.537Z,5.65
2023-02-03T09:07:27.605Z,5.62
2023-02-03T09:08:27.536Z,5.65
2023-02-03T09:09:27.806Z,5.67
2023-02-03T09:10:28.259Z,5.68
2023-02-03T09:11:27.593Z,5.69
2023-02-03T09:12:27.519Z,5.79
2023-02-03T09:13:27.570Z,5.89
2023-02-03T09:14:28.136Z,5.90
2023-02-03T09:15:27.597Z,5.85
2023-02-03T09:16:27.491Z,5.86
2023-02-03T09:17:27.525Z,5.92
2023-02-03T09:18:28.039Z,5.98
2023-02-03T09:19:28.125Z,6.04
2023-02-03T09:20:28.069Z,6.10
2023-02-03T09:21:35.576Z,6.13
2023-02-03T09:22:27.505Z,6.15
2023-02-03T09:23:27.326Z,6.18
2023-02-03T09:24:27.430Z,6.16
2023-02-03T09:25:27.481Z,6.18
2023-02-03T09:26:27.732Z,6.24
2023-02-03T09:27:27.422Z,6.24
2023-02-03T09:28:28.085Z,6.22
2023-02-03T09:29:26.639Z,6.27
2023-02-03T09:30:28.023Z,6.22
2023-02-03T09:31:28.127Z,6.24
2023-02-03T09:32:27.519Z,6.24
2023-02-03T09:33:27.330Z,6.24
2023-02-03T09:34:27.417Z,6.32
2023-02-03T09:35:27.321Z,6.32
2023-02-03T09:36:27.381Z,6.35
2023-02-03T09:37:27.376Z,6.34
2023-02-03T09:38:27.198Z,6.34
2023-02-03T09:39:27.440Z,6.35
2023-02-03T09:40:27.626Z,6.42
2023-02-03T09:41:27.246Z,6.42
2023-02-03T09:42:28.185Z,6.48
2023-02-03T09:43:27.313Z,6.49
2023-02-03T09:44:27.162Z,6.53
2023-02-03T09:45:27.292Z,6.47
2023-02-03T09:46:26.546Z,6.55
2023-02-03T09:47:27.467Z,6.59
2023-02-03T09:48:27.228Z,6.63
2023-02-03T09:49:27.288Z,6.62
2023-02-03T09:50:27.725Z,6.56
2023-02-03T09:51:27.290Z,6.65
2023-02-03T09:52:27.225Z,6.75
2023-02-03T09:53:27.004Z,6.80
2023-02-03T09:54:27.407Z,6.80
2023-02-03T09:55:27.043Z,6.77
2023-02-03T09:56:27.177Z,6.67
2023-02-03T09:57:27.027Z,6.74
2023-02-03T09:58:27.312Z,6.70
2023-02-03T09:59:27.023Z,6.71
2023-02-03T10:00:27.402Z,6.65
2023-02-03T10:01:27.141Z,6.63
2023-02-03T10:02:27.184Z,6.62
2023-02-03T10:03:26.971Z,6.63
2023-02-03T10:04:26.239Z,6.65
2023-02-03T10:05:27.094Z,6.71
2023-02-03T10:06:27.066Z,6.78
2023-02-03T10:07:28.260Z,6.83
2023-02-03T10:08:26.955Z,6.84
2023-02-03T10:09:27.184Z,6.84
2023-02-03T10:10:27.296Z,6.88
2023-02-03T10:11:27.126Z,6.83
2023-02-03T10:12:26.866Z,6.80
2023-02-03T10:13:27.095Z,6.84
2023-02-03T10:14:26.835Z,6.88
2023-02-03T10:15:27.065Z,6.91
2023-02-03T10:16:26.831Z,6.89
2023-02-03T10:17:27.554Z,6.85
2023-02-03T10:18:26.885Z,6.91
2023-02-03T10:19:26.965Z,6.89
2023-02-03T10:20:27.302Z,6.92
2023-02-03T10:21:27.511Z,6.98
2023-02-03T10:22:26.853Z,7.05
2023-02-03T10:23:27.524Z,6.98
2023-02-03T10:24:26.876Z,6.99
2023-02-03T10:25:26.763Z,6.96
2023-02-03T10:26:26.059Z,7.10
2023-02-03T10:27:26.804Z,7.10
2023-02-03T10:28:26.896Z,7.20
2023-02-03T10:29:27.512Z,7.21
2023-02-03T10:30:27.651Z,7.23
2023-02-03T10:31:26.811Z,7.26
2023-02-03T10:32:28.098Z,7.25
2023-02-03T10:33:26.704Z,7.21
2023-02-03T10:34:25.947Z,7.17
2023-02-03T10:35:26.754Z,7.25
2023-02-03T10:36:26.824Z,7.26
2023-02-03T10:37:29.048Z,7.21
2023-02-03T10:38:26.704Z,7.20
2023-02-03T10:39:26.743Z,7.16
2023-02-03T10:40:26.977Z,7.16
2023-02-03T10:41:26.737Z,7.21
2023-02-03T10:42:26.475Z,7.20
2023-02-03T10:43:26.663Z,7.21
2023-02-03T10:44:26.594Z,7.25
2023-02-03T10:45:26.735Z,7.20
2023-02-03T10:46:26.642Z,7.16
2023-02-03T10:47:26.577Z,7.17
2023-02-03T10:48:26.493Z,7.16
2023-02-03T10:49:26.754Z,7.08
2023-02-03T10:50:27.042Z,7.05
2023-02-03T10:51:26.623Z,7.03
2023-02-03T10:52:26.508Z,7.07
2023-02-03T10:53:26.527Z,7.03
2023-02-03T10:54:25.744Z,7.08
2023-02-03T10:55:26.406Z,7.16
2023-02-03T10:56:26.591Z,7.14
2023-02-03T10:57:26.396Z,7.17
2023-02-03T10:58:26.534Z,7.20
2023-02-03T10:59:25.715Z,7.17
2023-02-03T11:00:26.823Z,7.16
2023-02-03T11:01:26.407Z,7.18
2023-02-03T11:02:26.622Z,7.18
2023-02-03T11:03:26.943Z,7.16
2023-02-03T11:04:26.452Z,7.10
2023-02-03T11:05:26.384Z,7.10
2023-02-03T11:06:26.503Z,7.10
2023-02-03T11:07:27.214Z,7.18
2023-02-03T11:08:25.614Z,7.18
2023-02-03T11:09:26.484Z,7.16
2023-02-03T11:10:27.459Z,7.14
2023-02-03T11:11:27.079Z,7.16
2023-02-03T11:12:26.236Z,7.18
2023-02-03T11:13:26.619Z,7.14
2023-02-03T11:14:26.282Z,7.13
2023-02-03T11:15:27.154Z,7.16
2023-02-03T11:16:26.265Z,7.14
2023-02-03T11:17:27.580Z,7.18
2023-02-03T11:18:27.261Z,7.16
2023-02-03T11:19:26.764Z,7.13
2023-02-03T11:20:26.605Z,7.16
2023-02-03T11:21:27.521Z,7.21
2023-02-03T11:22:26.273Z,7.17
2023-02-03T11:23:27.023Z,7.16
2023-02-03T11:24:27.013Z,7.10
2023-02-03T11:25:26.695Z,7.13
2023-02-03T11:26:26.871Z,7.16
2023-02-03T11:27:27.163Z,7.13
2023-02-03T11:28:26.705Z,7.17
2023-02-03T11:29:25.384Z,7.14
2023-02-03T11:30:27.405Z,7.08
2023-02-03T11:31:27.616Z,7.10
2023-02-03T11:32:27.184Z,7.11
2023-02-03T11:33:27.443Z,7.08
2023-02-03T11:34:26.662Z,7.03
2023-02-03T11:35:25.384Z,7.00
2023-02-03T11:36:26.593Z,7.00
2023-02-03T11:37:26.416Z,7.08
2023-02-03T11:38:26.678Z,7.13
2023-02-03T11:39:25.503Z,7.17
2023-02-03T11:40:26.230Z,7.18
2023-02-03T11:41:25.252Z,7.21
2023-02-03T11:42:25.884Z,7.21
2023-02-03T11:43:25.228Z,7.16
2023-02-03T11:44:25.940Z,7.13
2023-02-03T11:45:26.094Z,7.05
2023-02-03T11:46:26.646Z,7.08
2023-02-03T11:47:25.963Z,7.02
2023-02-03T11:48:25.167Z,7.00
2023-02-03T11:49:26.047Z,6.99
2023-02-03T11:50:26.382Z,6.98
2023-02-03T11:51:25.947Z,6.96
2023-02-03T11:52:26.053Z,7.00
2023-02-03T11:53:25.944Z,6.99
2023-02-03T11:54:26.613Z,7.05
2023-02-03T11:55:25.673Z,6.98
2023-02-03T11:56:25.982Z,6.98
2023-02-03T11:57:26.455Z,6.99
2023-02-03T11:58:25.909Z,7.00
2023-02-03T11:59:25.683Z,7.00
2023-02-03T12:00:26.434Z,7.00
2023-02-03T12:01:26.621Z,7.05
2023-02-03T12:02:25.818Z,7.10
2023-02-03T12:03:25.635Z,7.13
2023-02-03T12:04:25.964Z,7.13
2023-02-03T12:05:25.748Z,7.17
2023-02-03T12:06:26.858Z,7.20
2023-02-03T12:07:24.968Z,7.18
2023-02-03T12:08:26.263Z,7.17
2023-02-03T12:09:24.981Z,7.18
2023-02-03T12:10:24.933Z,7.13
2023-02-03T12:11:25.688Z,7.14
2023-02-03T12:12:26.634Z,7.17
2023-02-03T12:13:25.791Z,7.16
2023-02-03T12:14:25.577Z,7.14
2023-02-03T12:15:25.687Z,7.16
2023-02-03T12:16:27.123Z,7.17
2023-02-03T12:17:24.846Z,7.13
2023-02-03T12:18:26.114Z,7.10
2023-02-03T12:19:25.653Z,7.10
2023-02-03T12:20:25.752Z,7.07
2023-02-03T12:21:25.614Z,7.07
2023-02-03T12:22:24.894Z,7.07
2023-02-03T12:23:25.594Z,7.07
2023-02-03T12:24:26.104Z,7.11
2023-02-03T12:25:24.833Z,7.08
2023-02-03T12:26:25.524Z,7.05
2023-02-03T12:27:25.584Z,7.11
2023-02-03T12:28:33.224Z,7.07
2023-02-03T12:29:24.760Z,7.02
2023-02-03T12:30:25.592Z,7.03
2023-02-03T12:31:25.679Z,7.05
2023-02-03T12:32:26.025Z,7.11
2023-02-03T12:33:26.603Z,7.14
2023-02-03T12:34:25.544Z,7.11
2023-02-03T12:35:25.377Z,7.14
2023-02-03T12:36:25.525Z,7.17
2023-02-03T12:37:25.948Z,7.18
2023-02-03T12:38:25.522Z,7.17
2023-02-03T12:39:25.425Z,7.17
2023-02-03T12:40:25.481Z,7.16
2023-02-03T12:41:25.409Z,7.21
2023-02-03T12:42:25.282Z,7.25
2023-02-03T12:43:25.463Z,7.21
2023-02-03T12:44:25.873Z,7.20
2023-02-03T12:45:25.365Z,7.21
2023-02-03T12:46:26.094Z,7.26
2023-02-03T12:47:25.709Z,7.23
2023-02-03T12:48:25.894Z,7.25
2023-02-03T12:49:26.194Z,7.26
2023-02-03T12:50:25.342Z,7.23
2023-02-03T12:51:25.307Z,7.23
2023-02-03T12:52:25.216Z,7.25
2023-02-03T12:53:27.367Z,7.25
2023-02-03T12:54:26.207Z,7.23
2023-02-03T12:55:26.415Z,7.20
2023-02-03T12:56:25.253Z,7.20
2023-02-03T12:57:25.553Z,7.17
2023-02-03T12:58:25.541Z,7.26
2023-02-03T12:59:25.018Z,7.20
2023-02-03T13:00:25.293Z,7.20
2023-02-03T13:01:26.072Z,7.18
2023-02-03T13:02:25.884Z,7.21
2023-02-03T13:03:25.881Z,7.21
2023-02-03T13:04:25.786Z,7.20
2023-02-03T13:05:25.132Z,7.14
2023-02-03T13:06:25.694Z,7.13
2023-02-03T13:07:25.749Z,7.10
2023-02-03T13:08:24.342Z,7.05
2023-02-03T13:09:24.370Z,7.07
2023-02-03T13:10:25.670Z,6.99
2023-02-03T13:11:25.115Z,6.95
2023-02-03T13:12:24.903Z,6.96
2023-02-03T13:13:25.773Z,6.92
2023-02-03T13:14:24.973Z,6.92
2023-02-03T13:15:25.625Z,6.88
2023-02-03T13:16:24.972Z,6.92
2023-02-03T13:17:25.139Z,6.99
2023-02-03T13:18:25.003Z,6.99
2023-02-03T13:19:25.053Z,7.00
2023-02-03T13:20:25.032Z,7.00
2023-02-03T13:21:25.675Z,6.92
2023-02-03T13:22:24.940Z,6.91
2023-02-03T13:23:25.609Z,6.88
2023-02-03T13:24:24.974Z,6.91
2023-02-03T13:25:25.567Z,6.88
2023-02-03T13:26:24.953Z,6.93
2023-02-03T13:27:25.453Z,6.93
2023-02-03T13:28:25.424Z,6.96
2023-02-03T13:29:25.097Z,7.03
2023-02-03T13:30:25.125Z,7.07
2023-02-03T13:31:25.473Z,7.02
2023-02-03T13:32:25.460Z,7.00
2023-02-03T13:33:25.783Z,6.96
2023-02-03T13:34:24.887Z,6.93
2023-02-03T13:35:33.999Z,7.00
2023-02-03T13:36:25.327Z,6.98
2023-02-03T13:37:25.476Z,7.00
2023-02-03T13:38:25.707Z,7.00
2023-02-03T13:39:25.316Z,7.05
2023-02-03T13:40:24.794Z,7.03
2023-02-03T13:41:25.988Z,6.96
2023-02-03T13:42:24.946Z,6.98
2023-02-03T13:43:37.381Z,6.93
2023-02-03T13:44:25.973Z,6.93
2023-02-03T13:45:25.895Z,6.85
2023-02-03T13:46:24.661Z,6.83
2023-02-03T13:47:23.912Z,6.91
2023-02-03T13:48:23.912Z,6.95
2023-02-03T13:49:23.927Z,6.91
2023-02-03T13:50:25.045Z,6.85
2023-02-03T13:51:23.930Z,6.92
2023-02-03T13:52:24.574Z,6.98
2023-02-03T13:53:24.847Z,6.92
2023-02-03T13:54:23.895Z,6.98
2023-02-03T13:55:25.333Z,6.91
2023-02-03T13:56:24.675Z,6.88
2023-02-03T13:57:25.154Z,6.89
2023-02-03T13:58:26.026Z,6.91
2023-02-03T13:59:25.565Z,6.88
2023-02-03T14:00:23.984Z,6.92
2023-02-03T14:01:25.157Z,6.93
2023-02-03T14:02:25.575Z,6.89
2023-02-03T14:03:24.590Z,6.84
2023-02-03T14:04:25.138Z,6.75
2023-02-03T14:05:26.127Z,6.73
2023-02-03T14:06:25.058Z,6.73
2023-02-03T14:07:26.156Z,6.80
2023-02-03T14:08:25.180Z,6.75
2023-02-03T14:09:25.237Z,6.74
2023-02-03T14:10:24.930Z,6.77
2023-02-03T14:11:24.117Z,6.74
2023-02-03T14:12:25.877Z,6.73
2023-02-03T14:13:26.116Z,6.71
2023-02-03T14:14:24.564Z,6.74
2023-02-03T14:15:24.739Z,6.78
2023-02-03T14:16:24.722Z,6.73
2023-02-03T14:17:25.237Z,6.74
2023-02-03T14:18:25.092Z,6.70
2023-02-03T14:19:24.800Z,6.78
2023-02-03T14:20:26.621Z,6.73
2023-02-03T14:21:23.930Z,6.71
2023-02-03T14:22:23.990Z,6.74
2023-02-03T14:23:25.293Z,6.71
2023-02-03T14:24:25.286Z,6.67
2023-02-03T14:25:23.584Z,6.65
2023-02-03T14:26:23.515Z,6.65
2023-02-03T14:27:25.101Z,6.60
2023-02-03T14:28:25.335Z,6.52
2023-02-03T14:29:25.097Z,6.57
2023-02-03T14:30:23.491Z,6.56
2023-02-03T14:31:25.154Z,6.62
2023-02-03T14:32:23.443Z,6.56
2023-02-03T14:33:24.963Z,6.56
2023-02-03T14:34:24.405Z,6.47
2023-02-03T14:35:25.200Z,6.42
2023-02-03T14:36:24.449Z,6.42
2023-02-03T14:37:23.452Z,6.45
2023-02-03T14:38:24.753Z,6.41
2023-02-03T14:39:25.396Z,6.49
2023-02-03T14:40:24.195Z,6.48
2023-02-03T14:41:23.535Z,6.39
2023-02-03T14:42:24.634Z,6.42
2023-02-03T14:43:23.743Z,6.52
2023-02-03T14:44:23.354Z,6.49
2023-02-03T14:45:24.675Z,6.47
2023-02-03T14:46:24.068Z,6.47
2023-02-03T14:47:25.003Z,6.47
2023-02-03T14:48:24.749Z,6.63
2023-02-03T14:49:24.063Z,6.63
2023-02-03T14:50:24.214Z,6.63
2023-02-03T14:51:24.056Z,6.53
2023-02-03T14:52:23.937Z,6.55
2023-02-03T14:53:24.128Z,6.55
2023-02-03T14:54:23.955Z,6.47
2023-02-03T14:55:23.193Z,6.47
2023-02-03T14:56:24.053Z,6.47
2023-02-03T14:57:23.766Z,6.49
2023-02-03T14:58:24.542Z,6.42
2023-02-03T14:59:23.804Z,6.38
2023-02-03T15:00:23.973Z,6.41
2023-02-03T15:01:23.871Z,6.47
2023-02-03T15:02:23.361Z,6.42
2023-02-03T15:03:23.127Z,6.35
2023-02-03T15:04:24.035Z,6.41
2023-02-03T15:05:23.734Z,6.47
2023-02-03T15:06:24.023Z,6.38
2023-02-03T15:07:23.795Z,6.34
2023-02-03T15:08:24.034Z,6.34
2023-02-03T15:09:23.745Z,6.34
2023-02-03T15:10:23.872Z,6.32
2023-02-03T15:11:23.797Z,6.34
2023-02-03T15:12:23.917Z,6.32
2023-02-03T15:13:23.907Z,6.44
2023-02-03T15:14:23.783Z,6.45
2023-02-03T15:15:23.868Z,6.48
2023-02-03T15:16:24.636Z,6.53
2023-02-03T15:17:23.856Z,6.49
2023-02-03T15:18:23.882Z,6.48
2023-02-03T15:19:24.564Z,6.55
2023-02-03T15:20:23.935Z,6.55
2023-02-03T15:21:23.855Z,6.57
2023-02-03T15:22:23.924Z,6.56
2023-02-03T15:23:22.928Z,6.63
2023-02-03T15:24:23.705Z,6.67
2023-02-03T15:25:23.744Z,6.70
2023-02-03T15:26:23.614Z,6.71
2023-02-03T15:27:23.814Z,6.74
2023-02-03T15:28:23.738Z,6.74
2023-02-03T15:29:23.716Z,6.65
2023-02-03T15:30:23.741Z,6.75
2023-02-03T15:31:24.679Z,6.74
2023-02-03T15:32:23.704Z,6.81
2023-02-03T15:33:23.473Z,6.89
2023-02-03T15:34:23.728Z,6.85
2023-02-03T15:35:22.764Z,6.81
2023-02-03T15:36:23.834Z,6.81
2023-02-03T15:37:23.445Z,6.92
2023-02-03T15:38:23.569Z,6.89
2023-02-03T15:39:24.110Z,6.92
2023-02-03T15:40:23.834Z,6.85
2023-02-03T15:41:23.600Z,6.83
2023-02-03T15:42:23.734Z,6.88
2023-02-03T15:43:23.667Z,6.89
2023-02-03T15:44:23.314Z,6.98
2023-02-03T15:45:23.508Z,6.93
2023-02-03T15:46:24.277Z,6.93
2023-02-03T15:47:23.895Z,6.95
2023-02-03T15:48:23.353Z,6.93
2023-02-03T15:49:24.484Z,6.96
2023-02-03T15:50:24.078Z,6.95
2023-02-03T15:51:23.444Z,6.96
2023-02-03T15:52:24.242Z,6.98
2023-02-03T15:53:26.191Z,6.93
2023-02-03T15:54:23.253Z,6.95
2023-02-03T15:55:23.454Z,6.84
2023-02-03T15:56:23.314Z,6.80
2023-02-03T15:57:24.433Z,6.83
2023-02-03T15:58:23.416Z,6.93
2023-02-03T15:59:23.113Z,6.91
2023-02-03T16:00:23.444Z,6.91
2023-02-03T16:01:23.190Z,6.84
2023-02-03T16:02:23.295Z,6.85
2023-02-03T16:03:23.163Z,6.85
2023-02-03T16:04:22.578Z,6.91
2023-02-03T16:05:23.176Z,6.92
2023-02-03T16:06:25.421Z,6.95
2023-02-03T16:07:23.234Z,6.92
2023-02-03T16:08:23.624Z,6.88
2023-02-03T16:09:23.174Z,6.88
2023-02-03T16:10:24.355Z,6.83
2023-02-03T16:11:23.114Z,6.89
2023-02-03T16:12:23.217Z,6.99
2023-02-03T16:13:23.786Z,6.96
2023-02-03T16:14:23.008Z,6.93
2023-02-03T16:15:23.505Z,6.89
2023-02-03T16:16:23.259Z,6.93
2023-02-03T16:17:24.103Z,7.02
2023-02-03T16:18:22.975Z,7.10
2023-02-03T16:19:23.278Z,7.20
2023-02-03T16:20:22.987Z,7.14
2023-02-03T16:21:23.184Z,7.14
2023-02-03T16:22:24.145Z,7.14
2023-02-03T16:23:23.111Z,7.16
2023-02-03T16:24:22.995Z,7.16
2023-02-03T16:25:23.258Z,7.23
2023-02-03T16:26:23.119Z,7.28
2023-02-03T16:27:22.324Z,7.16
2023-02-03T16:28:24.015Z,7.18
2023-02-03T16:29:22.792Z,7.14
2023-02-03T16:30:23.064Z,7.07
2023-02-03T16:31:22.921Z,7.03
2023-02-03T16:32:23.244Z,7.08
2023-02-03T16:33:22.804Z,7.11
2023-02-03T16:34:22.975Z,7.14
2023-02-03T16:35:22.824Z,7.18
2023-02-03T16:36:22.958Z,7.25
2023-02-03T16:37:22.923Z,7.28
2023-02-03T16:38:23.044Z,7.36
2023-02-03T16:39:22.971Z,7.38
2023-02-03T16:40:22.954Z,7.39
2023-02-03T16:41:23.665Z,7.38
2023-02-03T16:42:22.896Z,7.42
2023-02-03T16:43:22.958Z,7.42
2023-02-03T16:44:22.973Z,7.36
2023-02-03T16:45:23.573Z,7.34
2023-02-03T16:46:22.717Z,7.42
2023-02-03T16:47:22.914Z,7.47
2023-02-03T16:48:22.705Z,7.53
2023-02-03T16:49:22.885Z,7.50
2023-02-03T16:50:36.462Z,7.50
2023-02-03T16:51:23.067Z,7.42
2023-02-03T16:52:22.745Z,7.50
2023-02-03T16:53:22.796Z,7.59
2023-02-03T16:54:22.707Z,7.57
2023-02-03T16:55:23.223Z,7.56
2023-02-03T16:56:22.785Z,7.68
2023-02-03T16:57:22.803Z,7.70
2023-02-03T16:58:23.345Z,7.68
2023-02-03T16:59:22.625Z,7.66
2023-02-03T17:00:22.669Z,7.76
2023-02-03T17:01:22.764Z,7.75
2023-02-03T17:02:22.841Z,7.76
2023-02-03T17:03:23.244Z,7.73
2023-02-03T17:04:22.704Z,7.66
2023-02-03T17:05:23.904Z,7.66
2023-02-03T17:06:22.614Z,7.76
2023-02-03T17:07:23.491Z,7.73
2023-02-03T17:08:22.614Z,7.78
2023-02-03T17:09:22.537Z,7.72
2023-02-03T17:10:22.605Z,7.59
2023-02-03T17:11:23.584Z,7.60
2023-02-03T17:12:22.557Z,7.66
2023-02-03T17:13:22.643Z,7.69
2023-02-03T17:14:22.350Z,7.57
2023-02-03T17:15:22.504Z,7.53
2023-02-03T17:16:22.486Z,7.59
2023-02-03T17:17:22.619Z,7.68
2023-02-03T17:18:22.900Z,7.59
2023-02-03T17:19:22.454Z,7.64
2023-02-03T17:20:22.724Z,7.57
2023-02-03T17:21:21.801Z,7.54
2023-02-03T17:22:22.386Z,7.56
2023-02-03T17:23:22.725Z,7.52
2023-02-03T17:24:22.325Z,7.56
2023-02-03T17:25:22.943Z,7.62
2023-02-03T17:26:22.425Z,7.60
2023-02-03T17:27:22.436Z,7.56
2023-02-03T17:28:22.451Z,7.52
2023-02-03T17:29:22.399Z,7.49
2023-02-03T17:30:22.407Z,7.46
2023-02-03T17:31:22.395Z,7.41
2023-02-03T17:32:22.415Z,7.50
2023-02-03T17:33:22.167Z,7.49
2023-02-03T17:34:22.387Z,7.41
2023-02-03T17:35:22.314Z,7.42
2023-02-03T17:36:22.359Z,7.44
2023-02-03T17:37:22.846Z,7.50
2023-02-03T17:38:22.385Z,7.44
2023-02-03T17:53:21.177Z,7.46
2023-02-03T17:54:19.158Z,7.38
2023-02-03T17:55:17.667Z,7.34
2023-02-03T17:56:18.845Z,7.26
2023-02-03T17:57:19.096Z,7.21
2023-02-03T17:58:18.813Z,7.10
2023-02-03T17:59:18.010Z,7.07
2023-02-03T18:00:18.223Z,6.96
2023-02-03T18:01:18.088Z,6.98
2023-02-03T18:02:18.280Z,6.91
2023-02-03T18:03:18.156Z,6.85
2023-02-03T18:04:18.153Z,6.70
2023-02-03T18:05:18.045Z,6.60
2023-02-03T18:06:18.152Z,6.57
2023-02-03T18:07:18.154Z,6.45
2023-02-03T18:08:20.513Z,6.30
2023-02-03T18:09:17.412Z,6.27
2023-02-03T18:10:18.074Z,6.32
2023-02-03T18:11:17.962Z,6.30
2023-02-03T18:12:17.994Z,6.27
2023-02-03T18:13:18.107Z,6.19
2023-02-03T18:14:17.901Z,6.26
2023-02-03T18:15:19.196Z,6.18
2023-02-03T18:16:18.898Z,6.18
2023-02-03T18:17:17.960Z,6.10
2023-02-03T18:18:18.233Z,6.22
2023-02-03T18:19:18.028Z,6.29
2023-02-03T18:20:17.166Z,6.30
2023-02-03T18:21:18.005Z,6.21
2023-02-03T18:22:17.855Z,6.27
2023-02-03T18:23:17.128Z,6.27
2023-02-03T18:24:18.489Z,6.18
2023-02-03T18:25:18.073Z,6.07
2023-02-03T18:26:17.863Z,6.05
2023-02-03T18:27:17.167Z,6.03
2023-02-03T18:28:17.869Z,6.11
2023-02-03T18:29:17.060Z,6.05
2023-02-03T18:30:18.438Z,6.16
2023-02-03T18:31:17.656Z,6.08
2023-02-03T18:32:17.895Z,6.05
2023-02-03T18:33:17.103Z,6.04
2023-02-03T18:34:17.947Z,6.16
2023-02-03T18:35:16.997Z,6.16
2023-02-03T18:36:17.936Z,6.15
2023-02-03T18:37:17.692Z,6.27
2023-02-03T18:38:17.836Z,6.24
2023-02-03T18:39:17.789Z,6.13
2023-02-03T18:40:17.764Z,6.08
2023-02-03T18:41:17.685Z,6.05
2023-02-03T18:42:17.717Z,6.11
2023-02-03T18:43:17.708Z,6.37
2023-02-03T18:44:17.570Z,6.42
2023-02-03T18:45:17.642Z,6.34
2023-02-03T18:46:17.838Z,6.22
2023-02-03T18:47:17.705Z,6.22
2023-02-03T18:48:17.614Z,6.19
2023-02-03T18:49:17.785Z,6.21
2023-02-03T18:50:17.565Z,6.29
2023-02-03T18:51:17.603Z,6.29
2023-02-03T18:52:17.547Z,6.26
2023-02-03T18:53:17.616Z,6.34
2023-02-03T18:54:17.489Z,6.45
2023-02-03T18:55:18.025Z,6.39
2023-02-03T18:56:16.944Z,6.37
2023-02-03T18:57:17.585Z,6.38
2023-02-03T18:58:17.525Z,6.38
2023-02-03T18:59:17.323Z,6.27
2023-02-03T19:00:17.503Z,6.21
2023-02-03T19:01:17.502Z,6.16
2023-02-03T19:02:17.557Z,6.08
2023-02-03T19:03:18.267Z,6.04
2023-02-03T19:04:17.488Z,6.05
2023-02-03T19:05:17.782Z,6.08
2023-02-03T19:06:17.575Z,6.21
2023-02-03T19:07:17.365Z,6.13
2023-02-03T19:08:17.595Z,6.07
2023-02-03T19:09:17.385Z,6.19
2023-02-03T19:10:17.581Z,6.16
2023-02-03T19:11:17.435Z,6.11
2023-02-03T19:12:17.586Z,6.01
2023-02-03T19:13:17.358Z,5.92
2023-02-03T19:14:17.180Z,5.94
2023-02-03T19:15:17.374Z,5.95
2023-02-03T19:16:17.290Z,6.08
2023-02-03T19:17:17.366Z,6.22
2023-02-03T19:18:17.546Z,6.27
2023-02-03T19:19:17.353Z,6.16
2023-02-03T19:20:17.417Z,6.13
2023-02-03T19:21:17.364Z,6.11
2023-02-03T19:22:17.202Z,6.00
2023-02-03T19:23:17.389Z,5.92
2023-02-03T19:24:17.321Z,5.83
2023-02-03T19:25:17.322Z,5.94
2023-02-03T19:26:17.310Z,5.90
2023-02-03T19:27:17.635Z,5.85
2023-02-03T19:28:28.436Z,5.83
2023-02-03T19:29:17.232Z,5.83
2023-02-03T19:30:17.250Z,5.90
2023-02-03T19:31:17.489Z,5.85
2023-02-03T19:32:17.332Z,5.98
2023-02-03T19:33:16.404Z,5.97
2023-02-03T19:34:17.302Z,6.24
2023-02-03T19:35:18.091Z,6.38
2023-02-03T19:36:17.344Z,6.35
2023-02-03T19:37:16.394Z,6.29
2023-02-03T19:38:17.219Z,6.15
2023-02-03T19:39:16.352Z,6.34
2023-02-03T19:40:17.164Z,6.32
2023-02-03T19:41:16.440Z,6.27
2023-02-03T19:42:17.107Z,6.24
2023-02-03T19:43:16.288Z,6.24